sensor_id;sensor_type;location;lat;lon;timestamp;pressure;altitude;pressure_sealevel;temperature;humidity
63665;BME280;49820;33.966;73.390;2023-03-26T02:26:41;78916.56;;;9.76;83.99
63665;BME280;49820;33.966;73.390;2023-03-26T02:34:28;78914.38;;;10.55;82.80
63665;BME280;49820;33.966;73.390;2023-03-26T02:36:57;78922.31;;;10.90;85.98
63665;BME280;49820;33.966;73.390;2023-03-26T02:45:19;78919.16;;;11.39;81.48
63665;BME280;49820;33.966;73.390;2023-03-26T02:48:26;78912.31;;;11.75;77.27
63665;BME280;49820;33.966;73.390;2023-03-26T02:51:07;78923.72;;;12.25;70.82
63665;BME280;49820;33.966;73.390;2023-03-26T02:54:05;78916.47;;;12.46;74.45
63665;BME280;49820;33.966;73.390;2023-03-26T02:57:00;78903.28;;;12.38;69.10
63665;BME280;49820;33.966;73.390;2023-03-26T02:59:56;78929.63;;;12.79;72.92
63665;BME280;49820;33.966;73.390;2023-03-26T03:02:34;78941.47;;;13.11;71.51
63665;BME280;49820;33.966;73.390;2023-03-26T03:05:20;78924.50;;;13.19;68.61
63665;BME280;49820;33.966;73.390;2023-03-26T03:08:06;78952.81;;;13.59;75.34
63665;BME280;49820;33.966;73.390;2023-03-26T03:10:40;78927.66;;;13.48;70.62
63665;BME280;49820;33.966;73.390;2023-03-26T03:13:29;78917.88;;;13.82;67.32
63665;BME280;49820;33.966;73.390;2023-03-26T03:15:58;78931.78;;;13.89;69.29
63665;BME280;49820;33.966;73.390;2023-03-26T03:18:28;78933.09;;;14.31;65.64
63665;BME280;49820;33.966;73.390;2023-03-26T03:20:58;78941.28;;;14.06;67.98
63665;BME280;49820;33.966;73.390;2023-03-26T03:23:28;78960.44;;;14.17;68.87
63665;BME280;49820;33.966;73.390;2023-03-26T03:26:12;78961.53;;;14.03;68.36
63665;BME280;49820;33.966;73.390;2023-03-26T03:28:49;78967.03;;;14.20;68.59
63665;BME280;49820;33.966;73.390;2023-03-26T03:31:19;78966.06;;;14.30;69.87
63665;BME280;49820;33.966;73.390;2023-03-26T03:33:51;78955.22;;;14.11;66.93
63665;BME280;49820;33.966;73.390;2023-03-26T03:36:21;78970.72;;;14.52;63.99
63665;BME280;49820;33.966;73.390;2023-03-26T03:39:00;78959.59;;;14.64;66.02
63665;BME280;49820;33.966;73.390;2023-03-26T03:41:30;78955.81;;;14.76;65.64
63665;BME280;49820;33.966;73.390;2023-03-26T03:44:04;78951.31;;;14.70;66.74
63665;BME280;49820;33.966;73.390;2023-03-26T03:46:33;78972.69;;;14.74;65.42
63665;BME280;49820;33.966;73.390;2023-03-26T03:49:04;78978.66;;;14.77;66.40
63665;BME280;49820;33.966;73.390;2023-03-26T03:51:36;78978.28;;;15.08;65.99
63665;BME280;49820;33.966;73.390;2023-03-26T03:54:16;78967.50;;;14.68;67.87
63665;BME280;49820;33.966;73.390;2023-03-26T03:56:46;78991.38;;;14.78;63.39
63665;BME280;49820;33.966;73.390;2023-03-26T03:59:52;78985.38;;;14.97;64.53
63665;BME280;49820;33.966;73.390;2023-03-26T04:02:21;78941.59;;;14.79;65.06
63665;BME280;49820;33.966;73.390;2023-03-26T04:05:05;78976.69;;;14.75;67.52
63665;BME280;49820;33.966;73.390;2023-03-26T04:07:38;78987.25;;;14.81;61.48
63665;BME280;49820;33.966;73.390;2023-03-26T04:10:08;78987.91;;;14.61;63.53
63665;BME280;49820;33.966;73.390;2023-03-26T04:12:55;78982.78;;;14.53;68.83
63665;BME280;49820;33.966;73.390;2023-03-26T04:15:46;78976.25;;;14.48;62.73
63665;BME280;49820;33.966;73.390;2023-03-26T04:18:16;78985.94;;;14.18;67.76
63665;BME280;49820;33.966;73.390;2023-03-26T04:20:45;78997.06;;;14.27;68.57
63665;BME280;49820;33.966;73.390;2023-03-26T04:23:26;79002.38;;;14.29;64.53
63665;BME280;49820;33.966;73.390;2023-03-26T04:26:07;78986.19;;;14.31;67.75
63665;BME280;49820;33.966;73.390;2023-03-26T04:29:03;78998.97;;;14.30;64.31
63665;BME280;49820;33.966;73.390;2023-03-26T04:31:34;78995.16;;;14.23;66.09
63665;BME280;49820;33.966;73.390;2023-03-26T04:34:11;78988.09;;;14.34;68.48
63665;BME280;49820;33.966;73.390;2023-03-26T04:36:54;78991.81;;;14.02;67.35
63665;BME280;49820;33.966;73.390;2023-03-26T04:39:28;78976.44;;;13.78;65.73
63665;BME280;49820;33.966;73.390;2023-03-26T04:42:17;78994.75;;;13.94;67.22
63665;BME280;49820;33.966;73.390;2023-03-26T04:45:06;78991.75;;;13.81;64.43
63665;BME280;49820;33.966;73.390;2023-03-26T04:47:38;78977.69;;;13.58;66.33
63665;BME280;49820;33.966;73.390;2023-03-26T04:50:09;79009.25;;;13.57;68.93
63665;BME280;49820;33.966;73.390;2023-03-26T04:52:40;79005.06;;;13.62;69.57
63665;BME280;49820;33.966;73.390;2023-03-26T04:56:07;79004.34;;;13.64;69.54
63665;BME280;49820;33.966;73.390;2023-03-26T04:59:07;78989.50;;;13.67;69.95
63665;BME280;49820;33.966;73.390;2023-03-26T05:01:42;78983.06;;;13.58;71.18
63665;BME280;49820;33.966;73.390;2023-03-26T05:04:16;79008.25;;;13.69;71.09
63665;BME280;49820;33.966;73.390;2023-03-26T05:06:46;79019.94;;;13.59;70.10
63665;BME280;49820;33.966;73.390;2023-03-26T05:09:26;79017.94;;;13.58;65.52
63665;BME280;49820;33.966;73.390;2023-03-26T05:12:10;79011.97;;;13.32;64.43
63665;BME280;49820;33.966;73.390;2023-03-26T05:14:59;79005.28;;;13.07;66.32
63665;BME280;49820;33.966;73.390;2023-03-26T05:17:51;79001.03;;;13.16;71.29
63665;BME280;49820;33.966;73.390;2023-03-26T05:20:29;79013.56;;;13.23;69.10
63665;BME280;49820;33.966;73.390;2023-03-26T05:22:58;79009.56;;;13.22;67.23
63665;BME280;49820;33.966;73.390;2023-03-26T05:25:31;79014.75;;;13.53;68.42
63665;BME280;49820;33.966;73.390;2023-03-26T05:28:06;79012.22;;;13.47;67.77
63665;BME280;49820;33.966;73.390;2023-03-26T05:30:43;79001.66;;;13.64;69.29
63665;BME280;49820;33.966;73.390;2023-03-26T05:33:15;79005.97;;;13.78;71.21
63665;BME280;49820;33.966;73.390;2023-03-26T05:36:03;79000.09;;;13.48;68.50
63665;BME280;49820;33.966;73.390;2023-03-26T05:38:33;79005.00;;;13.42;66.70
63665;BME280;49820;33.966;73.390;2023-03-26T05:41:07;79010.31;;;13.44;63.18
63665;BME280;49820;33.966;73.390;2023-03-26T05:43:40;79010.78;;;13.50;71.12
63665;BME280;49820;33.966;73.390;2023-03-26T05:46:18;78999.16;;;13.58;65.89
63665;BME280;49820;33.966;73.390;2023-03-26T05:48:49;79011.06;;;13.40;63.71
63665;BME280;49820;33.966;73.390;2023-03-26T05:51:20;78994.03;;;13.72;64.36
63665;BME280;49820;33.966;73.390;2023-03-26T05:54:00;79008.94;;;13.67;65.38
63665;BME280;49820;33.966;73.390;2023-03-26T05:56:56;78997.13;;;13.81;62.56
63665;BME280;49820;33.966;73.390;2023-03-26T05:59:44;78991.75;;;14.25;66.79
63665;BME280;49820;33.966;73.390;2023-03-26T06:02:34;79008.25;;;14.56;60.15
63665;BME280;49820;33.966;73.390;2023-03-26T06:05:21;78988.19;;;15.13;61.59
63665;BME280;49820;33.966;73.390;2023-03-26T06:08:03;78972.81;;;15.10;59.50
63665;BME280;49820;33.966;73.390;2023-03-26T06:10:37;78973.41;;;16.41;60.24
63665;BME280;49820;33.966;73.390;2023-03-26T06:13:08;78975.31;;;16.10;56.18
63665;BME280;49820;33.966;73.390;2023-03-26T06:15:39;78967.50;;;16.20;54.73
63665;BME280;49820;33.966;73.390;2023-03-26T06:18:46;78975.00;;;17.20;54.81
63665;BME280;49820;33.966;73.390;2023-03-26T06:21:33;78967.94;;;16.08;52.45
63665;BME280;49820;33.966;73.390;2023-03-26T06:24:12;78957.84;;;16.61;52.13
63665;BME280;49820;33.966;73.390;2023-03-26T06:27:03;78967.78;;;16.48;50.69
63665;BME280;49820;33.966;73.390;2023-03-26T06:29:47;78955.72;;;16.80;54.02
63665;BME280;49820;33.966;73.390;2023-03-26T06:32:40;78952.00;;;17.69;47.44
63665;BME280;49820;33.966;73.390;2023-03-26T06:35:21;78941.06;;;17.57;49.93
63665;BME280;49820;33.966;73.390;2023-03-26T06:37:50;78970.38;;;16.50;52.47
63665;BME280;49820;33.966;73.390;2023-03-26T06:40:18;78955.16;;;15.52;52.52
63665;BME280;49820;33.966;73.390;2023-03-26T06:43:10;78953.50;;;17.66;52.79
63665;BME280;49820;33.966;73.390;2023-03-26T06:46:06;78957.16;;;17.75;48.72
63665;BME280;49820;33.966;73.390;2023-03-26T06:48:38;78954.28;;;17.31;48.74
63665;BME280;49820;33.966;73.390;2023-03-26T06:51:26;78926.09;;;16.95;50.93
63665;BME280;49820;33.966;73.390;2023-03-26T06:54:17;78944.31;;;16.27;49.26
63665;BME280;49820;33.966;73.390;2023-03-26T06:56:51;78947.22;;;15.11;52.82
63665;BME280;49820;33.966;73.390;2023-03-26T06:59:43;78935.03;;;16.74;49.03
63665;BME280;49820;33.966;73.390;2023-03-26T07:02:35;78932.91;;;15.35;50.42
63665;BME280;49820;33.966;73.390;2023-03-26T07:05:23;78930.28;;;16.92;49.36
63665;BME280;49820;33.966;73.390;2023-03-26T07:08:10;78944.03;;;16.86;49.49
63665;BME280;49820;33.966;73.390;2023-03-26T07:10:58;78911.97;;;16.44;50.83
63665;BME280;49820;33.966;73.390;2023-03-26T07:13:48;78940.03;;;14.66;51.89
63665;BME280;49820;33.966;73.390;2023-03-26T07:16:50;78941.88;;;14.30;51.25
63665;BME280;49820;33.966;73.390;2023-03-26T07:19:36;78912.00;;;15.73;51.62
63665;BME280;49820;33.966;73.390;2023-03-26T07:22:05;78936.69;;;14.24;52.64
63665;BME280;49820;33.966;73.390;2023-03-26T07:24:53;78934.44;;;16.89;50.02
63665;BME280;49820;33.966;73.390;2023-03-26T07:44:06;78907.59;;;16.70;49.17
63665;BME280;49820;33.966;73.390;2023-03-26T07:47:43;78901.03;;;16.82;47.41
63665;BME280;49820;33.966;73.390;2023-03-26T07:50:37;78918.16;;;16.24;50.37
63665;BME280;49820;33.966;73.390;2023-03-26T07:53:11;78923.44;;;15.36;49.71
63665;BME280;49820;33.966;73.390;2023-03-26T07:56:06;78899.31;;;14.97;51.82
63665;BME280;49820;33.966;73.390;2023-03-26T08:01:59;78919.75;;;14.69;54.87
63665;BME280;49820;33.966;73.390;2023-03-26T08:08:14;78909.25;;;16.11;52.22
63665;BME280;49820;33.966;73.390;2023-03-26T08:19:35;78882.84;;;15.61;50.68
63665;BME280;49820;33.966;73.390;2023-03-26T08:22:22;78887.00;;;15.39;50.40
63665;BME280;49820;33.966;73.390;2023-03-26T08:25:04;78894.75;;;15.66;50.46
63665;BME280;49820;33.966;73.390;2023-03-26T08:28:03;78885.28;;;15.86;52.46
63665;BME280;49820;33.966;73.390;2023-03-26T08:30:36;78873.09;;;14.76;51.56
63665;BME280;49820;33.966;73.390;2023-03-26T08:33:17;78862.72;;;14.66;53.73
63665;BME280;49820;33.966;73.390;2023-03-26T08:35:48;78865.28;;;15.08;53.08
63665;BME280;49820;33.966;73.390;2023-03-26T08:38:21;78877.81;;;14.76;54.54
63665;BME280;49820;33.966;73.390;2023-03-26T09:01:59;78843.81;;;17.57;56.73
63665;BME280;49820;33.966;73.390;2023-03-26T09:19:18;78841.00;;;15.64;53.24
63665;BME280;49820;33.966;73.390;2023-03-26T09:30:57;78828.69;;;14.96;57.50
63665;BME280;49820;33.966;73.390;2023-03-26T09:39:46;78797.59;;;17.33;51.99
63665;BME280;49820;33.966;73.390;2023-03-26T09:42:23;78812.22;;;18.26;52.64
63665;BME280;49820;33.966;73.390;2023-03-26T09:48:05;78793.25;;;18.71;50.45
63665;BME280;49820;33.966;73.390;2023-03-26T09:56:43;78807.66;;;15.19;58.39
63665;BME280;49820;33.966;73.390;2023-03-26T09:59:30;78786.00;;;14.30;61.05
63665;BME280;49820;33.966;73.390;2023-03-26T10:06:01;78770.28;;;13.59;66.08
63665;BME280;49820;33.966;73.390;2023-03-26T10:17:53;78782.84;;;13.86;68.58
63665;BME280;49820;33.966;73.390;2023-03-26T10:20:31;78777.44;;;14.25;65.59
63665;BME280;49820;33.966;73.390;2023-03-26T10:28:47;78773.03;;;16.93;64.67
63665;BME280;49820;33.966;73.390;2023-03-26T10:32:00;78771.78;;;17.22;56.68
63665;BME280;49820;33.966;73.390;2023-03-26T10:35:14;78770.03;;;15.53;64.00
63665;BME280;49820;33.966;73.390;2023-03-26T10:41:04;78770.78;;;14.62;68.16
63665;BME280;49820;33.966;73.390;2023-03-26T10:46:42;78774.63;;;13.50;73.32
63665;BME280;49820;33.966;73.390;2023-03-26T10:52:21;78775.63;;;12.74;74.63
63665;BME280;49820;33.966;73.390;2023-03-26T10:55:08;78767.56;;;12.53;76.64
63665;BME280;49820;33.966;73.390;2023-03-26T10:57:47;78773.44;;;12.35;76.58
63665;BME280;49820;33.966;73.390;2023-03-26T11:00:23;78773.16;;;12.22;80.49
63665;BME280;49820;33.966;73.390;2023-03-26T11:14:39;78763.25;;;11.18;91.23
63665;BME280;49820;33.966;73.390;2023-03-26T11:20:31;78776.41;;;10.99;94.40
63665;BME280;49820;33.966;73.390;2023-03-26T11:32:16;78776.06;;;12.14;82.72
63665;BME280;49820;33.966;73.390;2023-03-26T11:35:16;78758.81;;;12.55;81.75
63665;BME280;49820;33.966;73.390;2023-03-26T11:40:53;78764.09;;;12.80;79.86
63665;BME280;49820;33.966;73.390;2023-03-26T11:43:40;78757.38;;;12.35;82.97
63665;BME280;49820;33.966;73.390;2023-03-26T11:46:12;78730.09;;;11.58;83.96
63665;BME280;49820;33.966;73.390;2023-03-26T11:48:48;78769.41;;;11.64;85.95
63665;BME280;49820;33.966;73.390;2023-03-26T11:54:00;78765.00;;;11.79;84.23
63665;BME280;49820;33.966;73.390;2023-03-26T11:56:33;78751.31;;;11.64;86.74
63665;BME280;49820;33.966;73.390;2023-03-26T12:01:50;78747.78;;;11.47;87.93
63665;BME280;49820;33.966;73.390;2023-03-26T12:04:42;78758.06;;;11.36;88.03
63665;BME280;49820;33.966;73.390;2023-03-26T12:07:22;78754.38;;;11.25;90.36
63665;BME280;49820;33.966;73.390;2023-03-26T12:10:04;78756.44;;;10.96;91.41
63665;BME280;49820;33.966;73.390;2023-03-26T12:12:47;78754.06;;;10.84;93.67
63665;BME280;49820;33.966;73.390;2023-03-26T12:15:19;78719.72;;;10.41;97.27
63665;BME280;49820;33.966;73.390;2023-03-26T12:17:51;78756.38;;;10.44;99.96
63665;BME280;49820;33.966;73.390;2023-03-26T12:22:58;78744.69;;;9.98;100.00
63665;BME280;49820;33.966;73.390;2023-03-26T12:25:31;78755.97;;;10.01;100.00
63665;BME280;49820;33.966;73.390;2023-03-26T12:28:18;78739.19;;;9.75;100.00
63665;BME280;49820;33.966;73.390;2023-03-26T12:31:09;78758.69;;;9.68;100.00
63665;BME280;49820;33.966;73.390;2023-03-26T12:33:39;78727.56;;;9.25;100.00
63665;BME280;49820;33.966;73.390;2023-03-26T12:36:23;78743.28;;;9.39;100.00
63665;BME280;49820;33.966;73.390;2023-03-26T12:38:55;78742.66;;;9.37;100.00
63665;BME280;49820;33.966;73.390;2023-03-26T12:41:54;78738.22;;;9.25;100.00
63665;BME280;49820;33.966;73.390;2023-03-26T12:44:50;78742.94;;;9.23;100.00
63665;BME280;49820;33.966;73.390;2023-03-26T12:47:31;78747.13;;;9.13;100.00
63665;BME280;49820;33.966;73.390;2023-03-26T12:50:28;78757.28;;;9.05;100.00
63665;BME280;49820;33.966;73.390;2023-03-26T12:55:52;78696.03;;;8.29;100.00
63665;BME280;49820;33.966;73.390;2023-03-26T13:01:25;78710.88;;;8.18;100.00
63665;BME280;49820;33.966;73.390;2023-03-26T13:06:48;78751.91;;;8.33;100.00
63665;BME280;49820;33.966;73.390;2023-03-26T13:15:35;78743.91;;;7.90;100.00
63665;BME280;49820;33.966;73.390;2023-03-26T13:18:43;78752.00;;;7.84;100.00
63665;BME280;49820;33.966;73.390;2023-03-26T13:24:38;78751.22;;;7.46;100.00
63665;BME280;49820;33.966;73.390;2023-03-26T13:27:15;78769.78;;;7.48;100.00
63665;BME280;49820;33.966;73.390;2023-03-26T13:30:02;78767.81;;;7.47;100.00
63665;BME280;49820;33.966;73.390;2023-03-26T13:35:58;78764.59;;;7.40;100.00
63665;BME280;49820;33.966;73.390;2023-03-26T13:39:17;78768.66;;;7.33;100.00
63665;BME280;49820;33.966;73.390;2023-03-26T13:47:35;78785.47;;;7.19;100.00
63665;BME280;49820;33.966;73.390;2023-03-26T13:50:25;78779.53;;;7.15;100.00
63665;BME280;49820;33.966;73.390;2023-03-26T13:53:05;78773.16;;;6.94;100.00
63665;BME280;49820;33.966;73.390;2023-03-26T13:55:41;78773.16;;;6.94;100.00
63665;BME280;49820;33.966;73.390;2023-03-26T14:01:12;78791.06;;;6.97;100.00
63665;BME280;49820;33.966;73.390;2023-03-26T14:03:59;78781.78;;;6.96;100.00
63665;BME280;49820;33.966;73.390;2023-03-26T14:06:51;78781.13;;;6.94;100.00
63665;BME280;49820;33.966;73.390;2023-03-26T14:09:43;78791.81;;;6.87;100.00
63665;BME280;49820;33.966;73.390;2023-03-26T14:15:04;78778.84;;;6.61;100.00
63665;BME280;49820;33.966;73.390;2023-03-26T14:17:38;78794.69;;;6.69;100.00
63665;BME280;49820;33.966;73.390;2023-03-26T14:26:21;78789.50;;;6.57;100.00
63665;BME280;49820;33.966;73.390;2023-03-26T14:32:26;78796.03;;;6.66;100.00
63665;BME280;49820;33.966;73.390;2023-03-26T14:41:10;78808.56;;;6.74;100.00
63665;BME280;49820;33.966;73.390;2023-03-26T14:52:12;78802.00;;;6.69;100.00
63665;BME280;49820;33.966;73.390;2023-03-26T14:54:46;78798.72;;;6.64;100.00
63665;BME280;49820;33.966;73.390;2023-03-26T14:57:46;78815.22;;;6.73;100.00
63665;BME280;49820;33.966;73.390;2023-03-26T15:23:33;78829.13;;;6.75;100.00
63665;BME280;49820;33.966;73.390;2023-03-26T15:26:31;78818.75;;;6.53;100.00
63665;BME280;49820;33.966;73.390;2023-03-26T15:29:38;78820.81;;;6.46;100.00
63665;BME280;49820;33.966;73.390;2023-03-26T15:37:55;78837.63;;;6.21;100.00
63665;BME280;49820;33.966;73.390;2023-03-26T15:40:39;78821.91;;;5.98;100.00
63665;BME280;49820;33.966;73.390;2023-03-26T15:43:14;78845.06;;;6.04;100.00
63665;BME280;49820;33.966;73.390;2023-03-26T15:45:52;78826.59;;;5.92;100.00
63665;BME280;49820;33.966;73.390;2023-03-26T15:51:30;78834.50;;;5.98;100.00
63665;BME280;49820;33.966;73.390;2023-03-26T15:54:21;78842.41;;;6.02;100.00
63665;BME280;49820;33.966;73.390;2023-03-26T15:56:58;78844.41;;;6.01;100.00
63665;BME280;49820;33.966;73.390;2023-03-26T16:00:05;78845.03;;;6.08;100.00
63665;BME280;49820;33.966;73.390;2023-03-26T16:17:23;78829.41;;;6.47;100.00
63665;BME280;49820;33.966;73.390;2023-03-26T16:19:57;78838.59;;;6.58;100.00
63665;BME280;49820;33.966;73.390;2023-03-26T16:25:23;78842.47;;;6.69;100.00
63665;BME280;49820;33.966;73.390;2023-03-26T16:31:32;78843.03;;;6.78;100.00
63665;BME280;49820;33.966;73.390;2023-03-26T16:40:50;78830.09;;;6.47;100.00
63665;BME280;49820;33.966;73.390;2023-03-26T16:44:35;78809.75;;;6.24;100.00
63665;BME280;49820;33.966;73.390;2023-03-26T16:52:48;78840.13;;;6.39;100.00
63665;BME280;49820;33.966;73.390;2023-03-26T17:01:04;78811.25;;;6.04;100.00
63665;BME280;49820;33.966;73.390;2023-03-26T17:20:24;78822.78;;;6.46;100.00
63665;BME280;49820;33.966;73.390;2023-03-26T17:42:30;78809.06;;;5.42;100.00
63665;BME280;49820;33.966;73.390;2023-03-26T17:48:35;78805.28;;;5.06;100.00
63665;BME280;49820;33.966;73.390;2023-03-26T17:56:55;78801.38;;;4.99;100.00
63665;BME280;49820;33.966;73.390;2023-03-26T17:59:30;78798.78;;;4.89;100.00
63665;BME280;49820;33.966;73.390;2023-03-26T18:02:03;78813.34;;;4.88;100.00
63665;BME280;49820;33.966;73.390;2023-03-26T18:04:39;78787.03;;;4.59;100.00
63665;BME280;49820;33.966;73.390;2023-03-26T18:16:17;78813.41;;;4.76;100.00
63665;BME280;49820;33.966;73.390;2023-03-26T18:18:49;78797.56;;;4.66;100.00
63665;BME280;49820;33.966;73.390;2023-03-26T18:24:01;78800.09;;;4.92;100.00
63665;BME280;49820;33.966;73.390;2023-03-26T18:26:45;78785.53;;;4.87;100.00
63665;BME280;49820;33.966;73.390;2023-03-26T18:29:21;78799.38;;;4.99;100.00
63665;BME280;49820;33.966;73.390;2023-03-26T18:34:30;78765.72;;;4.86;100.00
63665;BME280;49820;33.966;73.390;2023-03-26T18:40:06;78796.03;;;5.07;100.00
63665;BME280;49820;33.966;73.390;2023-03-26T18:42:42;78768.38;;;4.84;100.00
63665;BME280;49820;33.966;73.390;2023-03-26T18:45:33;78778.25;;;4.89;100.00
63665;BME280;49820;33.966;73.390;2023-03-26T18:48:17;78791.53;;;4.83;100.00
63665;BME280;49820;33.966;73.390;2023-03-26T18:51:14;78789.59;;;4.74;100.00
63665;BME280;49820;33.966;73.390;2023-03-26T18:53:56;78789.63;;;4.68;100.00
63665;BME280;49820;33.966;73.390;2023-03-26T18:56:34;78792.31;;;4.62;100.00
63665;BME280;49820;33.966;73.390;2023-03-26T18:59:18;78768.50;;;4.57;100.00
63665;BME280;49820;33.966;73.390;2023-03-26T19:01:48;78764.59;;;4.44;100.00
63665;BME280;49820;33.966;73.390;2023-03-26T19:04:18;78782.44;;;4.52;100.00
63665;BME280;49820;33.966;73.390;2023-03-26T19:06:47;78770.59;;;4.31;100.00
63665;BME280;49820;33.966;73.390;2023-03-26T19:09:22;78763.34;;;4.27;100.00
63665;BME280;49820;33.966;73.390;2023-03-26T19:12:20;78783.03;;;4.63;100.00
63665;BME280;49820;33.966;73.390;2023-03-26T19:17:30;78763.28;;;4.43;100.00
63665;BME280;49820;33.966;73.390;2023-03-26T19:20:02;78779.13;;;4.53;100.00
63665;BME280;49820;33.966;73.390;2023-03-26T19:22:35;78769.25;;;4.42;100.00
63665;BME280;49820;33.966;73.390;2023-03-26T19:25:05;78725.75;;;4.08;100.00
63665;BME280;49820;33.966;73.390;2023-03-26T19:27:35;78754.75;;;4.29;100.00
63665;BME280;49820;33.966;73.390;2023-03-26T19:30:06;78773.88;;;4.39;100.00
63665;BME280;49820;33.966;73.390;2023-03-26T19:32:36;78756.00;;;4.42;100.00
63665;BME280;49820;33.966;73.390;2023-03-26T19:35:19;78752.00;;;4.51;100.00
63665;BME280;49820;33.966;73.390;2023-03-26T19:37:51;78751.88;;;4.71;100.00
63665;BME280;49820;33.966;73.390;2023-03-26T19:40:25;78765.09;;;4.77;100.00
63665;BME280;49820;33.966;73.390;2023-03-26T19:42:57;78749.16;;;4.87;100.00
63665;BME280;49820;33.966;73.390;2023-03-26T19:45:26;78739.88;;;4.88;100.00
63665;BME280;49820;33.966;73.390;2023-03-26T19:47:55;78738.56;;;4.89;100.00
63665;BME280;49820;33.966;73.390;2023-03-26T19:50:54;78766.25;;;5.09;100.00
63665;BME280;49820;33.966;73.390;2023-03-26T19:53:35;78751.66;;;5.10;100.00
63665;BME280;49820;33.966;73.390;2023-03-26T19:56:11;78754.31;;;5.10;100.00
63665;BME280;49820;33.966;73.390;2023-03-26T19:58:43;78702.88;;;4.82;100.00
63665;BME280;49820;33.966;73.390;2023-03-26T20:01:23;78724.69;;;4.85;100.00
63665;BME280;49820;33.966;73.390;2023-03-26T20:03:59;78740.47;;;5.01;100.00
63665;BME280;49820;33.966;73.390;2023-03-26T20:06:29;78712.84;;;4.74;100.00
63665;BME280;49820;33.966;73.390;2023-03-26T20:09:13;78728.63;;;4.88;100.00
63665;BME280;49820;33.966;73.390;2023-03-26T20:11:45;78732.59;;;4.91;100.00
63665;BME280;49820;33.966;73.390;2023-03-26T20:14:16;78727.25;;;4.99;100.00
63665;BME280;49820;33.966;73.390;2023-03-26T20:16:49;78719.97;;;4.97;100.00
63665;BME280;49820;33.966;73.390;2023-03-26T20:19:18;78706.81;;;4.87;100.00
63665;BME280;49820;33.966;73.390;2023-03-26T20:21:48;78714.69;;;4.97;100.00
63665;BME280;49820;33.966;73.390;2023-03-26T20:24:18;78705.41;;;4.96;100.00
63665;BME280;49820;33.966;73.390;2023-03-26T20:26:47;78710.69;;;5.01;100.00
63665;BME280;49820;33.966;73.390;2023-03-26T20:29:16;78702.75;;;5.03;100.00
63665;BME280;49820;33.966;73.390;2023-03-26T20:31:48;78709.38;;;4.95;100.00
63665;BME280;49820;33.966;73.390;2023-03-26T20:34:20;78721.94;;;4.99;100.00
63665;BME280;49820;33.966;73.390;2023-03-26T20:36:51;78722.06;;;4.83;100.00
63665;BME280;49820;33.966;73.390;2023-03-26T20:39:28;78712.28;;;4.61;100.00
63665;BME280;49820;33.966;73.390;2023-03-26T20:41:57;78700.50;;;4.36;100.00
63665;BME280;49820;33.966;73.390;2023-03-26T20:44:26;78703.25;;;4.17;100.00
63665;BME280;49820;33.966;73.390;2023-03-26T20:46:55;78698.69;;;4.02;100.00
63665;BME280;49820;33.966;73.390;2023-03-26T20:49:26;78665.16;;;3.62;100.00
63665;BME280;49820;33.966;73.390;2023-03-26T20:51:57;78661.16;;;3.73;100.00
63665;BME280;49820;33.966;73.390;2023-03-26T20:54:27;78675.63;;;3.88;100.00
63665;BME280;49820;33.966;73.390;2023-03-26T20:56:59;78680.19;;;4.02;100.00
63665;BME280;49820;33.966;73.390;2023-03-26T20:59:29;78666.97;;;4.04;100.00
63665;BME280;49820;33.966;73.390;2023-03-26T21:01:58;78680.84;;;3.98;100.00
63665;BME280;49820;33.966;73.390;2023-03-26T21:04:28;78666.41;;;3.75;100.00
63665;BME280;49820;33.966;73.390;2023-03-26T21:06:57;78676.31;;;3.76;100.00
63665;BME280;49820;33.966;73.390;2023-03-26T21:09:42;78679.66;;;3.71;100.00
63665;BME280;49820;33.966;73.390;2023-03-26T21:14:49;78654.63;;;3.52;100.00
63665;BME280;49820;33.966;73.390;2023-03-26T21:17:22;78654.59;;;3.58;100.00
63665;BME280;49820;33.966;73.390;2023-03-26T21:19:52;78653.28;;;3.61;100.00
63665;BME280;49820;33.966;73.390;2023-03-26T21:25:08;78666.44;;;3.71;100.00
63665;BME280;49820;33.966;73.390;2023-03-26T21:28:01;78656.53;;;3.71;100.00
63665;BME280;49820;33.966;73.390;2023-03-26T21:30:34;78665.09;;;3.74;100.00
63665;BME280;49820;33.966;73.390;2023-03-26T21:33:03;78663.16;;;3.72;100.00
63665;BME280;49820;33.966;73.390;2023-03-26T21:35:33;78632.09;;;3.67;100.00
63665;BME280;49820;33.966;73.390;2023-03-26T21:38:03;78664.38;;;3.96;100.00
63665;BME280;49820;33.966;73.390;2023-03-26T21:40:33;78628.72;;;3.87;100.00
63665;BME280;49820;33.966;73.390;2023-03-26T21:43:04;78639.88;;;4.03;100.00
63665;BME280;49820;33.966;73.390;2023-03-26T21:45:34;78627.31;;;4.02;100.00
63665;BME280;49820;33.966;73.390;2023-03-26T21:48:03;78655.03;;;4.13;100.00
63665;BME280;49820;33.966;73.390;2023-03-26T21:50:33;78633.94;;;4.01;100.00
63665;BME280;49820;33.966;73.390;2023-03-26T21:53:03;78615.44;;;4.01;100.00
63665;BME280;49820;33.966;73.390;2023-03-26T21:55:56;78610.78;;;4.05;100.00
63665;BME280;49820;33.966;73.390;2023-03-26T22:01:39;78637.09;;;4.30;100.00
63665;BME280;49820;33.966;73.390;2023-03-26T22:07:19;78631.00;;;4.47;100.00
63665;BME280;49820;33.966;73.390;2023-03-26T22:09:52;78619.16;;;4.42;100.00
63665;BME280;49820;33.966;73.390;2023-03-26T22:12:22;78614.19;;;4.85;100.00
63665;BME280;49820;33.966;73.390;2023-03-26T22:14:53;78608.78;;;5.02;100.00
63665;BME280;49820;33.966;73.390;2023-03-26T22:17:22;78610.78;;;4.99;100.00
63665;BME280;49820;33.966;73.390;2023-03-26T22:19:52;78619.28;;;5.10;99.77
63665;BME280;49820;33.966;73.390;2023-03-26T22:22:21;78613.84;;;5.26;93.55
63665;BME280;49820;33.966;73.390;2023-03-26T22:24:53;78617.50;;;5.55;92.28
63665;BME280;49820;33.966;73.390;2023-03-26T22:27:23;78618.78;;;5.60;89.80
63665;BME280;49820;33.966;73.390;2023-03-26T22:29:52;78606.47;;;5.34;92.05